ROU1818 CYYZ-TXKF
Flight info
| Callsign | ROU1818 |
|---|---|
| Flight time | N/A |
| Altitude | 35000 |
| Route | TRNTO4 BMPAH DCT AEVON DCT EXTOL Q140 ARRKK DCT JFK DCT SHIPP Y492 SQUAD/M075F350 DCT DARUX L459 DASER MOMOM1 |
| Aircraft | A320/M-SDE3FGHIRWY/LB1 |
Departure
| Time | N/A |
|---|---|
| Airport | Toronto Pearson International Airport (CYYZ) |
Arrival
| Time | 2026-04-24 20:06 |
|---|---|
| Airport | L.F. Wade International Airport (TXKF) |
| Time | Latitude | Longitude | Altitude | Speed | Heading |
|---|---|---|---|---|---|
| 2026-04-24 17:05 | 43.67781 | -79.61079 | 567 ft | 0 kts | 242° |
| 2026-04-24 18:54 | 37.41885 | -70.22049 | 34844 ft | 488 kts | 159° |
| 2026-04-24 18:55 | 37.32762 | -70.16419 | 34864 ft | 486 kts | 160° |
| 2026-04-24 18:56 | 37.26689 | -70.12667 | 34869 ft | 486 kts | 160° |
| 2026-04-24 18:56 | 37.20656 | -70.08951 | 34864 ft | 486 kts | 160° |
| 2026-04-24 18:57 | 37.14591 | -70.05226 | 34834 ft | 485 kts | 160° |
| 2026-04-24 18:57 | 37.08520 | -70.01497 | 34846 ft | 485 kts | 159° |
| 2026-04-24 18:58 | 37.02467 | -69.97776 | 34844 ft | 485 kts | 159° |
| 2026-04-24 18:58 | 36.96409 | -69.94069 | 34847 ft | 484 kts | 160° |
| 2026-04-24 18:59 | 36.90385 | -69.90403 | 34807 ft | 484 kts | 160° |
| 2026-04-24 18:59 | 36.84294 | -69.86692 | 34823 ft | 484 kts | 160° |
| 2026-04-24 19:00 | 36.78242 | -69.83014 | 34834 ft | 484 kts | 160° |
| 2026-04-24 19:00 | 36.72219 | -69.79358 | 34836 ft | 484 kts | 160° |
| 2026-04-24 19:01 | 36.66146 | -69.75667 | 34834 ft | 484 kts | 160° |
| 2026-04-24 19:01 | 36.60089 | -69.71989 | 34835 ft | 484 kts | 160° |
| 2026-04-24 19:02 | 36.55044 | -69.68940 | 34841 ft | 484 kts | 160° |
| 2026-04-24 19:02 | 36.47987 | -69.64687 | 34842 ft | 484 kts | 160° |
| 2026-04-24 19:03 | 36.41919 | -69.61047 | 34841 ft | 484 kts | 160° |
| 2026-04-24 19:03 | 36.35844 | -69.57394 | 34822 ft | 484 kts | 160° |
| 2026-04-24 19:04 | 36.30795 | -69.54363 | 34823 ft | 484 kts | 160° |
| 2026-04-24 19:04 | 36.24712 | -69.50728 | 34828 ft | 484 kts | 160° |
| 2026-04-24 19:05 | 36.18683 | -69.47117 | 34835 ft | 484 kts | 160° |
| 2026-04-24 19:05 | 36.12910 | -69.42559 | 34799 ft | 494 kts | 147° |
| 2026-04-24 19:06 | 36.07518 | -69.37384 | 34809 ft | 494 kts | 147° |
| 2026-04-24 19:06 | 36.02077 | -69.32200 | 34813 ft | 493 kts | 147° |
| 2026-04-24 19:07 | 35.96647 | -69.27022 | 34818 ft | 494 kts | 147° |
| 2026-04-24 19:07 | 35.91211 | -69.21836 | 34820 ft | 494 kts | 147° |
| 2026-04-24 19:08 | 35.85774 | -69.16663 | 34797 ft | 494 kts | 147° |
| 2026-04-24 19:08 | 35.80334 | -69.11500 | 34818 ft | 493 kts | 148° |
| 2026-04-24 19:09 | 35.74883 | -69.06346 | 34818 ft | 493 kts | 148° |
| 2026-04-24 19:09 | 35.69480 | -69.01235 | 34834 ft | 492 kts | 148° |
| 2026-04-24 19:10 | 35.64042 | -68.96097 | 34832 ft | 492 kts | 148° |
| 2026-04-24 19:10 | 35.58609 | -68.90981 | 34834 ft | 492 kts | 148° |
| 2026-04-24 19:11 | 35.53174 | -68.85874 | 34822 ft | 491 kts | 148° |
| 2026-04-24 19:11 | 35.47745 | -68.80769 | 34828 ft | 491 kts | 148° |
| 2026-04-24 19:12 | 35.42345 | -68.75708 | 34830 ft | 491 kts | 148° |
| 2026-04-24 19:12 | 35.36907 | -68.70620 | 34831 ft | 491 kts | 148° |
| 2026-04-24 19:13 | 35.32360 | -68.66371 | 34833 ft | 491 kts | 148° |
| 2026-04-24 19:13 | 35.26045 | -68.60478 | 34804 ft | 490 kts | 148° |
| 2026-04-24 19:14 | 35.20612 | -68.55412 | 34823 ft | 490 kts | 148° |
| 2026-04-24 19:14 | 35.15178 | -68.50372 | 34838 ft | 490 kts | 148° |
| 2026-04-24 19:15 | 35.09744 | -68.45337 | 34839 ft | 490 kts | 148° |
| 2026-04-24 19:15 | 35.04314 | -68.40304 | 34843 ft | 490 kts | 148° |
| 2026-04-24 19:16 | 34.96196 | -68.32813 | 34820 ft | 489 kts | 148° |
| 2026-04-24 19:16 | 34.90770 | -68.27798 | 34844 ft | 489 kts | 148° |
| 2026-04-24 19:17 | 34.85350 | -68.22808 | 34851 ft | 488 kts | 148° |
| 2026-04-24 19:17 | 34.79926 | -68.17823 | 34854 ft | 488 kts | 149° |
| 2026-04-24 19:18 | 34.74512 | -68.12845 | 34856 ft | 487 kts | 149° |
| 2026-04-24 19:18 | 34.69099 | -68.07882 | 34845 ft | 487 kts | 149° |
| 2026-04-24 19:19 | 34.63686 | -68.02940 | 34856 ft | 486 kts | 149° |
| 2026-04-24 19:19 | 34.58277 | -67.98005 | 34870 ft | 486 kts | 149° |
| 2026-04-24 19:20 | 34.52908 | -67.93122 | 34864 ft | 485 kts | 149° |
| 2026-04-24 19:20 | 34.47500 | -67.88206 | 34874 ft | 485 kts | 149° |
| 2026-04-24 19:21 | 34.42098 | -67.83293 | 34837 ft | 485 kts | 149° |
| 2026-04-24 19:21 | 34.36699 | -67.78394 | 34859 ft | 484 kts | 149° |
| 2026-04-24 19:22 | 34.31309 | -67.73503 | 34873 ft | 484 kts | 149° |
| 2026-04-24 19:22 | 34.25918 | -67.68633 | 34876 ft | 483 kts | 149° |
| 2026-04-24 19:23 | 34.20560 | -67.63807 | 34880 ft | 483 kts | 149° |
| 2026-04-24 19:23 | 34.15326 | -67.58670 | 34877 ft | 489 kts | 138° |
| 2026-04-24 19:24 | 34.11287 | -67.52002 | 34856 ft | 497 kts | 121° |
| 2026-04-24 19:24 | 34.08006 | -67.44654 | 34876 ft | 497 kts | 121° |
| 2026-04-24 19:25 | 34.04721 | -67.37368 | 34881 ft | 497 kts | 121° |
| 2026-04-24 19:25 | 34.01422 | -67.30050 | 34885 ft | 496 kts | 121° |
| 2026-04-24 19:26 | 33.98135 | -67.22741 | 34880 ft | 496 kts | 121° |
| 2026-04-24 19:26 | 33.94837 | -67.15426 | 34885 ft | 496 kts | 121° |
| 2026-04-24 19:27 | 33.91535 | -67.08129 | 34880 ft | 496 kts | 121° |
| 2026-04-24 19:27 | 33.88234 | -67.00825 | 34881 ft | 496 kts | 121° |
| 2026-04-24 19:28 | 33.84946 | -66.93576 | 34882 ft | 496 kts | 121° |
| 2026-04-24 19:28 | 33.81632 | -66.86291 | 34891 ft | 496 kts | 122° |
| 2026-04-24 19:29 | 33.76650 | -66.75364 | 34890 ft | 496 kts | 122° |
| 2026-04-24 19:30 | 33.73334 | -66.68094 | 34888 ft | 496 kts | 122° |
| 2026-04-24 19:30 | 33.70005 | -66.60836 | 34887 ft | 496 kts | 122° |
| 2026-04-24 19:31 | 33.66666 | -66.53578 | 34888 ft | 496 kts | 122° |
| 2026-04-24 19:31 | 33.63353 | -66.46370 | 34885 ft | 497 kts | 122° |
| 2026-04-24 19:32 | 33.60007 | -66.39102 | 34888 ft | 497 kts | 122° |
| 2026-04-24 19:32 | 33.56657 | -66.31845 | 34892 ft | 497 kts | 122° |
| 2026-04-24 19:33 | 33.53297 | -66.24603 | 34906 ft | 497 kts | 122° |
| 2026-04-24 19:33 | 33.49953 | -66.17400 | 34862 ft | 497 kts | 122° |
| 2026-04-24 19:33 | 33.48265 | -66.13758 | 33975 ft | 505 kts | 122° |
| 2026-04-24 19:34 | 33.46547 | -66.10065 | 33152 ft | 506 kts | 122° |
| 2026-04-24 19:34 | 33.44845 | -66.06405 | 32574 ft | 501 kts | 122° |
| 2026-04-24 19:34 | 33.43148 | -66.02760 | 31994 ft | 498 kts | 122° |
| 2026-04-24 19:34 | 33.41463 | -65.99140 | 31375 ft | 496 kts | 121° |
| 2026-04-24 19:35 | 33.39789 | -65.95545 | 30855 ft | 491 kts | 121° |
| 2026-04-24 19:35 | 33.38129 | -65.91989 | 30319 ft | 488 kts | 121° |
| 2026-04-24 19:35 | 33.36476 | -65.88458 | 29769 ft | 484 kts | 121° |
| 2026-04-24 19:35 | 33.34830 | -65.84963 | 29243 ft | 479 kts | 121° |
| 2026-04-24 19:36 | 33.33219 | -65.81550 | 28759 ft | 474 kts | 122° |
| 2026-04-24 19:36 | 33.31603 | -65.78137 | 28261 ft | 469 kts | 122° |
| 2026-04-24 19:36 | 33.30002 | -65.74763 | 27787 ft | 464 kts | 122° |
| 2026-04-24 19:36 | 33.28419 | -65.71425 | 27340 ft | 459 kts | 122° |
| 2026-04-24 19:37 | 33.26867 | -65.68144 | 27183 ft | 446 kts | 122° |
| 2026-04-24 19:37 | 33.25362 | -65.64956 | 27024 ft | 436 kts | 122° |
| 2026-04-24 19:37 | 33.23873 | -65.61810 | 26531 ft | 434 kts | 122° |
| 2026-04-24 19:37 | 33.22386 | -65.58680 | 26042 ft | 433 kts | 122° |
| 2026-04-24 19:38 | 33.20897 | -65.55553 | 25560 ft | 432 kts | 122° |
| 2026-04-24 19:38 | 33.19416 | -65.52441 | 25052 ft | 431 kts | 122° |
| 2026-04-24 19:38 | 33.17933 | -65.49323 | 24553 ft | 431 kts | 123° |
| 2026-04-24 19:38 | 33.16450 | -65.46209 | 24021 ft | 431 kts | 123° |
| 2026-04-24 19:39 | 33.14966 | -65.43091 | 23476 ft | 432 kts | 123° |
| 2026-04-24 19:39 | 33.13478 | -65.39961 | 22871 ft | 432 kts | 123° |
| 2026-04-24 19:39 | 33.11997 | -65.36850 | 22333 ft | 431 kts | 123° |
| 2026-04-24 19:39 | 33.10535 | -65.33781 | 21803 ft | 430 kts | 122° |
| 2026-04-24 19:40 | 33.09065 | -65.30697 | 21474 ft | 423 kts | 123° |
| 2026-04-24 19:40 | 33.07632 | -65.27695 | 21330 ft | 407 kts | 123° |
| 2026-04-24 19:40 | 33.06275 | -65.24850 | 21197 ft | 384 kts | 123° |
| 2026-04-24 19:40 | 33.04979 | -65.22166 | 21066 ft | 363 kts | 124° |
| 2026-04-24 19:41 | 33.03874 | -65.19535 | 20791 ft | 351 kts | 110° |
| 2026-04-24 19:41 | 33.03428 | -65.16715 | 20526 ft | 346 kts | 90° |
| 2026-04-24 19:41 | 33.03683 | -65.13894 | 20220 ft | 339 kts | 71° |
| 2026-04-24 19:41 | 33.04568 | -65.11337 | 19892 ft | 330 kts | 53° |
| 2026-04-24 19:42 | 33.05953 | -65.09215 | 19555 ft | 318 kts | 37° |
| 2026-04-24 19:42 | 33.07650 | -65.07642 | 18933 ft | 310 kts | 21° |
| 2026-04-24 19:42 | 33.09622 | -65.06633 | 18276 ft | 301 kts | 6° |
| 2026-04-24 19:42 | 33.11623 | -65.06256 | 17648 ft | 290 kts | 353° |
| 2026-04-24 19:43 | 33.13595 | -65.06435 | 17060 ft | 279 kts | 341° |
| 2026-04-24 19:43 | 33.15462 | -65.06970 | 16522 ft | 273 kts | 336° |
| 2026-04-24 19:43 | 33.17258 | -65.07644 | 15994 ft | 269 kts | 334° |
| 2026-04-24 19:43 | 33.19019 | -65.08367 | 15472 ft | 266 kts | 334° |
| 2026-04-24 19:44 | 33.20754 | -65.09093 | 14960 ft | 263 kts | 334° |
| 2026-04-24 19:44 | 33.22476 | -65.09810 | 14455 ft | 261 kts | 334° |
| 2026-04-24 19:44 | 33.24193 | -65.10516 | 13965 ft | 259 kts | 335° |
| 2026-04-24 19:44 | 33.25891 | -65.11204 | 13450 ft | 257 kts | 335° |
| 2026-04-24 19:45 | 33.27576 | -65.11899 | 12891 ft | 254 kts | 332° |
| 2026-04-24 19:45 | 33.29134 | -65.12824 | 12345 ft | 248 kts | 322° |
| 2026-04-24 19:45 | 33.30475 | -65.14067 | 12012 ft | 242 kts | 311° |
| 2026-04-24 19:45 | 33.31562 | -65.15597 | 11960 ft | 241 kts | 301° |
| 2026-04-24 19:46 | 33.32368 | -65.17349 | 11963 ft | 240 kts | 291° |
| 2026-04-24 19:46 | 33.32864 | -65.19262 | 11967 ft | 246 kts | 281° |
| 2026-04-24 19:46 | 33.33037 | -65.21370 | 11967 ft | 266 kts | 270° |
| 2026-04-24 19:46 | 33.32812 | -65.23604 | 11967 ft | 281 kts | 258° |
| 2026-04-24 19:47 | 33.32133 | -65.25817 | 11964 ft | 287 kts | 246° |
| 2026-04-24 19:47 | 33.31024 | -65.27823 | 11964 ft | 292 kts | 233° |
| 2026-04-24 19:47 | 33.29517 | -65.29489 | 11965 ft | 302 kts | 220° |
| 2026-04-24 19:47 | 33.27558 | -65.30752 | 11969 ft | 340 kts | 205° |
| 2026-04-24 19:48 | 33.25133 | -65.31380 | 11969 ft | 376 kts | 188° |
| 2026-04-24 19:48 | 33.22443 | -65.31065 | 11967 ft | 396 kts | 171° |
| 2026-04-24 19:48 | 33.17136 | -65.29169 | 11971 ft | 402 kts | 165° |
| 2026-04-24 19:49 | 33.11678 | -65.26886 | 11975 ft | 421 kts | 164° |
| 2026-04-24 19:49 | 33.06279 | -65.24135 | 11979 ft | 427 kts | 149° |
| 2026-04-24 19:50 | 33.00613 | -65.17458 | 11981 ft | 433 kts | 135° |
| 2026-04-24 19:50 | 32.98551 | -65.14833 | 11981 ft | 433 kts | 135° |
| 2026-04-24 19:51 | 32.94591 | -65.09840 | 11987 ft | 393 kts | 136° |
| 2026-04-24 19:51 | 32.92757 | -65.07522 | 11988 ft | 378 kts | 136° |
| 2026-04-24 19:52 | 32.89246 | -65.03078 | 11985 ft | 353 kts | 136° |
| 2026-04-24 19:52 | 32.87598 | -65.00987 | 11981 ft | 341 kts | 136° |
| 2026-04-24 19:52 | 32.85987 | -64.98944 | 11986 ft | 338 kts | 136° |
| 2026-04-24 19:52 | 32.84380 | -64.96907 | 11985 ft | 337 kts | 136° |
| 2026-04-24 19:53 | 32.82773 | -64.94868 | 11999 ft | 337 kts | 136° |
| 2026-04-24 19:53 | 32.81166 | -64.92831 | 11996 ft | 337 kts | 136° |
| 2026-04-24 19:53 | 32.77991 | -64.88820 | 11348 ft | 333 kts | 136° |
| 2026-04-24 19:54 | 32.76406 | -64.86820 | 10991 ft | 331 kts | 136° |
| 2026-04-24 19:54 | 32.74831 | -64.84834 | 10634 ft | 329 kts | 136° |
| 2026-04-24 19:54 | 32.73268 | -64.82862 | 10277 ft | 327 kts | 136° |
| 2026-04-24 19:54 | 32.71715 | -64.80903 | 9937 ft | 324 kts | 136° |
| 2026-04-24 19:55 | 32.70697 | -64.79619 | 9819 ft | 318 kts | 136° |
| 2026-04-24 19:55 | 32.68685 | -64.77078 | 9388 ft | 313 kts | 136° |
| 2026-04-24 19:55 | 32.67195 | -64.75199 | 9008 ft | 311 kts | 136° |
| 2026-04-24 19:55 | 32.65715 | -64.73336 | 8616 ft | 310 kts | 136° |
| 2026-04-24 19:56 | 32.64240 | -64.71481 | 8230 ft | 308 kts | 136° |
| 2026-04-24 19:56 | 32.62769 | -64.69633 | 7853 ft | 306 kts | 136° |
| 2026-04-24 19:56 | 32.61314 | -64.67803 | 7483 ft | 304 kts | 136° |
| 2026-04-24 19:56 | 32.59864 | -64.65980 | 7102 ft | 303 kts | 136° |
| 2026-04-24 19:57 | 32.58424 | -64.64171 | 6729 ft | 301 kts | 136° |
| 2026-04-24 19:57 | 32.56990 | -64.62370 | 6339 ft | 300 kts | 136° |
| 2026-04-24 19:57 | 32.55561 | -64.60575 | 5914 ft | 299 kts | 136° |
| 2026-04-24 19:57 | 32.54136 | -64.58789 | 5539 ft | 296 kts | 137° |
| 2026-04-24 19:58 | 32.52733 | -64.57030 | 5186 ft | 292 kts | 137° |
| 2026-04-24 19:58 | 32.51341 | -64.55282 | 4838 ft | 288 kts | 137° |
| 2026-04-24 19:58 | 32.49991 | -64.53584 | 4595 ft | 280 kts | 137° |
| 2026-04-24 19:58 | 32.48665 | -64.51920 | 4227 ft | 276 kts | 137° |
| 2026-04-24 19:59 | 32.47377 | -64.50252 | 3905 ft | 271 kts | 136° |
| 2026-04-24 19:59 | 32.46170 | -64.48636 | 3761 ft | 259 kts | 135° |
| 2026-04-24 19:59 | 32.44992 | -64.47044 | 3575 ft | 250 kts | 135° |
| 2026-04-24 19:59 | 32.43837 | -64.45571 | 3270 ft | 244 kts | 146° |
| 2026-04-24 20:00 | 32.42428 | -64.44580 | 3003 ft | 230 kts | 167° |
| 2026-04-24 20:00 | 32.40906 | -64.44226 | 2704 ft | 218 kts | 186° |
| 2026-04-24 20:00 | 32.39440 | -64.44440 | 2413 ft | 210 kts | 199° |
| 2026-04-24 20:00 | 32.38015 | -64.44812 | 2129 ft | 208 kts | 199° |
| 2026-04-24 20:01 | 32.36607 | -64.45171 | 1866 ft | 204 kts | 199° |
| 2026-04-24 20:01 | 32.35250 | -64.45509 | 1737 ft | 194 kts | 199° |
| 2026-04-24 20:01 | 32.34005 | -64.45947 | 1628 ft | 178 kts | 218° |
| 2026-04-24 20:01 | 32.33204 | -64.46983 | 1552 ft | 170 kts | 248° |
| 2026-04-24 20:02 | 32.33016 | -64.47871 | 1515 ft | 169 kts | 266° |
| 2026-04-24 20:02 | 32.33256 | -64.49714 | 1522 ft | 171 kts | 280° |
| 2026-04-24 20:02 | 32.33497 | -64.51075 | 1517 ft | 172 kts | 279° |
| 2026-04-24 20:02 | 32.33738 | -64.52453 | 1522 ft | 170 kts | 279° |
| 2026-04-24 20:03 | 32.33974 | -64.53811 | 1524 ft | 167 kts | 279° |
| 2026-04-24 20:03 | 32.34206 | -64.55144 | 1540 ft | 160 kts | 279° |
| 2026-04-24 20:03 | 32.34417 | -64.56357 | 1513 ft | 144 kts | 278° |
| 2026-04-24 20:03 | 32.34614 | -64.57496 | 1438 ft | 139 kts | 277° |
| 2026-04-24 20:04 | 32.34805 | -64.58600 | 1303 ft | 136 kts | 277° |
| 2026-04-24 20:04 | 32.34995 | -64.59699 | 1141 ft | 137 kts | 279° |
| 2026-04-24 20:04 | 32.35184 | -64.60795 | 974 ft | 135 kts | 279° |
| 2026-04-24 20:04 | 32.35372 | -64.61883 | 798 ft | 135 kts | 279° |
| 2026-04-24 20:05 | 32.35560 | -64.62973 | 627 ft | 135 kts | 278° |
| 2026-04-24 20:05 | 32.35747 | -64.64055 | 448 ft | 135 kts | 278° |
| 2026-04-24 20:05 | 32.35935 | -64.65146 | 273 ft | 136 kts | 278° |
| 2026-04-24 20:05 | 32.36120 | -64.66228 | 70 ft | 133 kts | 278° |
| 2026-04-24 20:06 | 32.36292 | -64.67230 | 4 ft | 109 kts | 281° |
| 2026-04-24 20:06 | 32.36409 | -64.67908 | 4 ft | 59 kts | 281° |
| 2026-04-24 20:06 | 32.36466 | -64.68238 | 7 ft | 33 kts | 281° |
| 2026-04-24 20:06 | 32.36503 | -64.68474 | 7 ft | 26 kts | 283° |
| 2026-04-24 20:07 | 32.36527 | -64.68607 | 6 ft | 23 kts | 282° |
| 2026-04-24 20:07 | 32.36569 | -64.68844 | 1 ft | 21 kts | 281° |
| 2026-04-24 20:07 | 32.36599 | -64.69018 | 4 ft | 22 kts | 281° |
| 2026-04-24 20:07 | 32.36620 | -64.69163 | 4 ft | 15 kts | 264° |
| 2026-04-24 20:08 | 32.36582 | -64.69275 | 4 ft | 15 kts | 247° |
| 2026-04-24 20:08 | 32.36541 | -64.69391 | 4 ft | 16 kts | 247° |
| 2026-04-24 20:08 | 32.36497 | -64.69512 | 4 ft | 16 kts | 247° |
| 2026-04-24 20:08 | 32.36453 | -64.69638 | 5 ft | 17 kts | 247° |
| 2026-04-24 20:09 | 32.36409 | -64.69764 | 4 ft | 17 kts | 248° |
| 2026-04-24 20:09 | 32.36366 | -64.69887 | 4 ft | 16 kts | 248° |
| 2026-04-24 20:09 | 32.36321 | -64.70010 | 4 ft | 17 kts | 246° |
| 2026-04-24 20:09 | 32.36276 | -64.70136 | 4 ft | 17 kts | 247° |
| 2026-04-24 20:10 | 32.36284 | -64.70197 | 5 ft | 7 kts | 329° |
| 2026-04-24 20:10 | 32.36328 | -64.70229 | 4 ft | 8 kts | 315° |
| 2026-04-24 20:10 | 32.36350 | -64.70284 | 4 ft | 8 kts | 264° |
| 2026-04-24 20:10 | 32.36337 | -64.70342 | 4 ft | 4 kts | 249° |
| 2026-04-24 20:11 | 32.36328 | -64.70368 | 9 ft | 0 kts | 249° |